KMTP/MTP METAR and TAF weather

Enter ICAO airport designator
Station Type Date Time Source
KMTP METAR 2018/12/11 21:54 UTC NOAA

KMTP 112154Z AUTO 00000KT 04/M01 A2997 RMK AO1 SLP148 T00391011


Station Type Date Time Source
KMTP Decoded METAR 2018/12/11 21:54 UTC NOAA

MONTAUK AIRPORT, NY, United States (KMTP) 41-04N 071-55W 2M
Dec 11, 2018 - 04:54 PM EST / 2018.12.11 2154 UTC
Wind: Calm:0
Temperature: 39.0 F (3.9 C)
Dew Point: 30.0 F (-1.1 C)
Relative Humidity: 69%
Pressure (altimeter): 29.97 in. Hg (1014 hPa)
ob: KMTP 112154Z AUTO 00000KT 04/M01 A2997 RMK AO1 SLP148 T00391011
cycle: 22

Station Type Date Time Source
KMTP TAF UTC NOAA

Error!


Example: see airport list